createdAt,value
2022-08-23T00:01:39.890Z,2.40
2022-08-23T00:04:16.281Z,2.45
2022-08-23T00:06:48.880Z,2.55
2022-08-23T00:09:16.520Z,2.33
2022-08-23T00:11:54.913Z,2.22
2022-08-23T00:14:33.675Z,2.40
2022-08-23T00:17:09.177Z,2.53
2022-08-23T00:19:36.995Z,2.60
2022-08-23T00:22:04.290Z,1.98
2022-08-23T00:24:31.367Z,2.42
2022-08-23T00:27:08.165Z,2.35
2022-08-23T00:29:50.491Z,2.08
2022-08-23T00:32:29.516Z,2.35
2022-08-23T00:34:58.439Z,2.22
2022-08-23T00:37:26.584Z,2.13
2022-08-23T00:39:53.819Z,2.28
2022-08-23T00:43:10.023Z,2.47
2022-08-23T00:46:16.554Z,2.42
2022-08-23T00:48:44.263Z,2.00
2022-08-23T00:51:15.704Z,2.47
2022-08-23T00:53:55.594Z,2.20
2022-08-23T00:56:27.795Z,2.15
2022-08-23T00:58:57.627Z,2.35
2022-08-23T01:01:25.414Z,2.03
2022-08-23T01:04:04.449Z,2.67
2022-08-23T01:06:59.283Z,1.98
2022-08-23T01:09:26.948Z,1.90
2022-08-23T01:12:10.957Z,2.13
2022-08-23T01:14:57.310Z,2.28
2022-08-23T01:17:38.535Z,1.92
2022-08-23T01:20:15.119Z,2.00
2022-08-23T01:22:59.658Z,2.10
2022-08-23T01:25:30.905Z,2.25
2022-08-23T01:27:59.393Z,2.22
2022-08-23T01:30:32.615Z,2.20
2022-08-23T01:35:43.098Z,2.22
2022-08-23T01:38:12.052Z,2.50
2022-08-23T01:40:42.326Z,2.50
2022-08-23T01:43:09.737Z,2.50
2022-08-23T01:45:37.488Z,2.50
2022-08-23T01:48:07.269Z,2.70
2022-08-23T01:53:03.093Z,2.80
2022-08-23T01:55:30.949Z,2.70
2022-08-23T01:58:01.464Z,2.67
2022-08-23T02:00:40.823Z,3.00
2022-08-23T02:03:09.014Z,2.45
2022-08-23T02:05:37.326Z,2.55
2022-08-23T02:08:25.822Z,3.08
2022-08-23T02:10:53.986Z,2.88
2022-08-23T02:13:21.216Z,2.90
2022-08-23T02:15:51.476Z,2.72
2022-08-23T02:18:22.252Z,2.92
2022-08-23T02:20:51.998Z,2.83
2022-08-23T02:23:20.863Z,3.03
2022-08-23T02:25:47.778Z,2.78
2022-08-23T02:28:14.846Z,2.92
2022-08-23T02:30:44.131Z,3.10
2022-08-23T02:33:13.076Z,2.80
2022-08-23T02:35:42.591Z,3.17
2022-08-23T02:38:12.895Z,3.00
2022-08-23T02:40:41.471Z,3.10
2022-08-23T02:43:09.555Z,3.28
2022-08-23T02:45:36.985Z,3.00
2022-08-23T02:48:05.327Z,3.00
2022-08-23T02:50:32.635Z,3.03
2022-08-23T02:52:59.627Z,3.22
2022-08-23T02:55:27.305Z,3.15
2022-08-23T02:57:54.617Z,2.75
2022-08-23T03:00:22.987Z,2.97
2022-08-23T03:02:49.863Z,3.38
2022-08-23T03:05:17.504Z,3.08
2022-08-23T03:07:45.446Z,3.47
2022-08-23T03:10:13.232Z,2.80
2022-08-23T03:12:40.149Z,2.90
2022-08-23T03:15:08.199Z,3.15
2022-08-23T03:17:35.845Z,3.17
2022-08-23T03:20:03.988Z,3.00
2022-08-23T03:22:30.975Z,2.97
2022-08-23T03:24:57.921Z,3.33
2022-08-23T03:27:25.231Z,3.00
2022-08-23T03:29:52.059Z,3.40
2022-08-23T03:32:18.962Z,3.17
2022-08-23T03:34:47.167Z,3.28
2022-08-23T03:37:14.642Z,3.22
2022-08-23T03:39:41.856Z,3.80
2022-08-23T03:42:09.223Z,3.38
2022-08-23T03:44:36.236Z,3.33
2022-08-23T03:47:03.807Z,3.17
2022-08-23T03:49:30.805Z,3.22
2022-08-23T03:51:58.569Z,3.47
2022-08-23T03:54:25.746Z,3.67
2022-08-23T03:57:03.154Z,3.30
2022-08-23T03:59:33.906Z,3.78
2022-08-23T04:02:01.277Z,3.80
2022-08-23T04:04:28.442Z,3.70
2022-08-23T04:06:56.294Z,3.70
2022-08-23T04:09:23.383Z,3.80
2022-08-23T04:11:51.229Z,4.00
2022-08-23T04:14:18.424Z,4.40
2022-08-23T04:16:45.363Z,4.50
2022-08-23T04:19:15.069Z,4.25
2022-08-23T04:21:51.328Z,3.85
2022-08-23T04:24:19.195Z,4.60
2022-08-23T04:26:49.475Z,4.38
2022-08-23T04:29:24.850Z,4.47
2022-08-23T04:32:07.733Z,4.70
2022-08-23T04:34:39.932Z,4.25
2022-08-23T04:37:09.283Z,5.30
2022-08-23T04:39:57.097Z,5.32
2022-08-23T04:42:24.892Z,6.03
2022-08-23T04:44:51.869Z,5.15
2022-08-23T04:47:20.327Z,5.80
2022-08-23T04:49:47.244Z,6.10
2022-08-23T04:52:19.068Z,5.90
2022-08-23T04:54:46.847Z,5.40
2022-08-23T04:57:15.449Z,6.63
2022-08-23T04:59:42.898Z,6.45
2022-08-23T05:02:09.779Z,7.28
2022-08-23T05:04:36.972Z,6.82
2022-08-23T05:07:04.168Z,7.97
2022-08-23T05:09:31.332Z,7.88
2022-08-23T05:11:58.216Z,8.60
2022-08-23T05:14:25.114Z,9.18
2022-08-23T05:16:52.066Z,9.13
2022-08-23T05:19:18.886Z,9.95
2022-08-23T05:21:45.773Z,12.00
2022-08-23T05:24:13.562Z,11.27
2022-08-23T05:26:41.154Z,11.70
2022-08-23T05:29:08.945Z,11.38
2022-08-23T05:31:35.898Z,11.43
2022-08-23T05:34:03.181Z,12.10
2022-08-23T05:36:30.047Z,12.25
2022-08-23T05:38:56.941Z,13.90
2022-08-23T05:41:25.917Z,15.02
2022-08-23T05:44:04.956Z,15.52
2022-08-23T05:46:31.886Z,17.65
2022-08-23T05:48:58.746Z,18.40
2022-08-23T05:51:32.241Z,17.85
2022-08-23T05:54:07.367Z,18.02
2022-08-23T05:56:38.997Z,19.58
2022-08-23T05:59:12.596Z,19.48
2022-08-23T06:01:41.061Z,19.88
2022-08-23T06:04:12.542Z,19.77
2022-08-23T06:06:41.953Z,17.08
2022-08-23T06:09:14.245Z,17.60
2022-08-23T06:11:44.910Z,17.83
2022-08-23T06:14:13.086Z,17.75
2022-08-23T06:16:44.420Z,17.60
2022-08-23T06:19:11.982Z,16.77
2022-08-23T06:21:39.467Z,14.60
2022-08-23T06:24:07.269Z,14.90
2022-08-23T06:26:40.540Z,13.63
2022-08-23T06:29:12.605Z,10.48
2022-08-23T06:31:47.507Z,8.82
2022-08-23T06:34:35.286Z,8.52
2022-08-23T06:37:14.444Z,7.72
2022-08-23T06:39:42.169Z,7.60
2022-08-23T06:42:38.404Z,7.65
2022-08-23T06:45:03.202Z,6.75
2022-08-23T06:47:30.366Z,7.03
2022-08-23T06:49:58.777Z,6.22
2022-08-23T06:52:28.336Z,5.95
2022-08-23T06:54:55.915Z,5.20
2022-08-23T06:57:24.942Z,4.70
2022-08-23T06:59:51.786Z,4.30
2022-08-23T07:02:18.805Z,4.30
2022-08-23T07:04:45.949Z,3.90
2022-08-23T07:07:12.970Z,3.90
2022-08-23T07:09:42.086Z,3.97
2022-08-23T07:12:09.323Z,4.53
2022-08-23T07:14:38.367Z,4.78
2022-08-23T07:17:05.597Z,4.53
2022-08-23T07:19:35.608Z,4.70
2022-08-23T07:22:05.581Z,4.75
2022-08-23T07:24:33.969Z,4.40
2022-08-23T07:27:07.092Z,4.72
2022-08-23T07:32:04.004Z,4.85
2022-08-23T07:34:30.914Z,4.40
2022-08-23T07:36:57.793Z,4.65
2022-08-23T07:39:26.525Z,4.80
2022-08-23T07:41:53.719Z,4.65
2022-08-23T07:44:23.510Z,4.97
2022-08-23T07:46:55.109Z,5.00
2022-08-23T07:49:23.017Z,4.25
2022-08-23T07:51:58.803Z,4.43
2022-08-23T07:54:25.801Z,5.00
2022-08-23T07:56:52.674Z,4.53
2022-08-23T07:59:19.649Z,4.95
2022-08-23T08:01:46.747Z,5.57
2022-08-23T08:04:13.838Z,5.63
2022-08-23T08:07:04.952Z,5.00
2022-08-23T08:09:35.580Z,5.20
2022-08-23T08:12:02.645Z,5.63
2022-08-23T08:14:29.643Z,4.97
2022-08-23T08:16:58.614Z,5.10
2022-08-23T08:19:25.992Z,5.50
2022-08-23T08:21:53.294Z,5.55
2022-08-23T08:24:20.207Z,5.70
2022-08-23T08:26:48.494Z,5.30
2022-08-23T08:29:15.784Z,5.65
2022-08-23T08:31:46.607Z,5.10
2022-08-23T08:34:14.748Z,5.30
2022-08-23T08:36:46.485Z,5.82
2022-08-23T08:39:21.917Z,5.47
2022-08-23T08:42:05.363Z,6.55
2022-08-23T08:44:51.453Z,7.03
2022-08-23T08:47:40.383Z,7.53
2022-08-23T08:50:41.582Z,5.72
2022-08-23T08:53:38.937Z,5.57
2022-08-23T08:56:32.448Z,5.80
2022-08-23T08:59:06.556Z,5.90
2022-08-23T09:01:36.970Z,5.82
2022-08-23T09:04:06.359Z,5.80
2022-08-23T09:07:07.051Z,5.60
2022-08-23T09:10:06.403Z,5.20
2022-08-23T09:12:45.819Z,5.20
2022-08-23T09:15:55.018Z,5.30
2022-08-23T09:18:24.339Z,5.47
2022-08-23T09:20:55.242Z,5.47
2022-08-23T09:23:38.436Z,5.60
2022-08-23T09:29:12.350Z,5.22
2022-08-23T09:31:48.199Z,4.90
2022-08-23T09:34:34.812Z,5.65
2022-08-23T09:37:25.159Z,4.95
2022-08-23T09:40:28.799Z,4.43
2022-08-23T09:45:42.329Z,5.35
2022-08-23T09:48:15.455Z,5.60
2022-08-23T09:50:54.858Z,5.82
2022-08-23T09:53:28.117Z,6.15
2022-08-23T09:55:58.609Z,6.20
2022-08-23T09:58:40.571Z,6.00
2022-08-23T10:01:27.503Z,6.10
2022-08-23T10:04:16.964Z,5.97
2022-08-23T10:06:46.375Z,6.95
2022-08-23T10:09:48.477Z,6.90
2022-08-23T10:12:15.465Z,6.38
2022-08-23T10:14:43.532Z,6.38
2022-08-23T10:17:40.643Z,6.88
2022-08-23T10:20:38.836Z,7.20
2022-08-23T10:23:48.757Z,6.20
2022-08-23T10:26:41.792Z,6.70
2022-08-23T10:29:37.825Z,6.75
2022-08-23T10:32:25.654Z,6.95
2022-08-23T10:35:07.535Z,7.15
2022-08-23T10:38:12.942Z,7.10
2022-08-23T10:40:58.438Z,6.82
2022-08-23T10:43:26.365Z,6.78
2022-08-23T10:46:00.420Z,7.30
2022-08-23T10:48:54.801Z,7.10
2022-08-23T10:51:31.460Z,7.00
2022-08-23T10:54:07.667Z,7.65
2022-08-23T10:56:36.409Z,7.10
2022-08-23T10:59:24.054Z,6.95
2022-08-23T11:02:15.375Z,7.82
2022-08-23T11:05:17.235Z,8.93
2022-08-23T11:08:05.611Z,9.18
2022-08-23T11:10:53.771Z,9.02
2022-08-23T11:13:35.050Z,8.02
2022-08-23T11:16:15.454Z,8.35
2022-08-23T11:18:45.202Z,9.63
2022-08-23T11:21:17.995Z,10.10
2022-08-23T11:23:54.435Z,9.80
2022-08-23T11:26:27.450Z,9.63
2022-08-23T11:31:58.456Z,9.48
2022-08-23T11:34:34.957Z,8.93
2022-08-23T11:37:20.125Z,8.80
2022-08-23T11:39:59.270Z,8.50
2022-08-23T11:42:38.089Z,8.50
2022-08-23T11:45:44.395Z,9.20
2022-08-23T11:48:43.825Z,8.73
2022-08-23T11:51:44.700Z,7.85
2022-08-23T12:06:39.113Z,7.60
2022-08-23T12:09:33.821Z,7.30
2022-08-23T12:12:02.090Z,6.75
2022-08-23T12:14:32.005Z,7.20
2022-08-23T12:17:20.345Z,7.88
2022-08-23T12:20:16.295Z,7.03
2022-08-23T12:23:17.664Z,6.93
2022-08-23T12:25:44.823Z,7.10
2022-08-23T12:28:29.998Z,7.15
2022-08-23T12:31:14.368Z,7.10
2022-08-23T12:34:00.199Z,6.40
2022-08-23T12:36:59.951Z,6.70
2022-08-23T12:39:37.345Z,6.60
2022-08-23T12:42:15.837Z,14.73
2022-08-23T12:44:46.395Z,6.63
2022-08-23T12:47:20.812Z,7.22
2022-08-23T12:50:10.445Z,6.55
2022-08-23T12:52:38.329Z,6.75
2022-08-23T12:55:19.877Z,6.68
2022-08-23T12:57:56.458Z,6.97
2022-08-23T13:00:56.537Z,6.43
2022-08-23T13:03:34.583Z,6.57
2022-08-23T13:06:10.684Z,6.50
2022-08-23T13:08:58.294Z,6.93
2022-08-23T13:11:31.055Z,6.78
2022-08-23T13:13:58.133Z,7.20
2022-08-23T13:16:35.734Z,7.65
2022-08-23T13:19:30.891Z,6.90
2022-08-23T13:22:25.844Z,6.93
2022-08-23T13:25:27.953Z,7.32
2022-08-23T13:27:56.546Z,6.72
2022-08-23T13:30:38.703Z,7.05
2022-08-23T13:33:08.735Z,6.25
2022-08-23T13:35:49.750Z,6.43
2022-08-23T13:38:31.158Z,7.13
2022-08-23T13:41:08.768Z,6.78
2022-08-23T13:43:56.113Z,6.90
2022-08-23T13:46:27.146Z,7.35
2022-08-23T13:49:17.087Z,6.90
2022-08-23T13:54:55.228Z,7.80
2022-08-23T13:57:22.918Z,7.03
2022-08-23T13:59:54.593Z,7.55
2022-08-23T14:02:24.185Z,7.88
2022-08-23T14:04:51.882Z,7.70
2022-08-23T14:07:19.428Z,7.15
2022-08-23T14:09:46.333Z,7.38
2022-08-23T14:12:19.615Z,7.10
2022-08-23T14:14:47.569Z,7.45
2022-08-23T14:17:16.972Z,6.78
2022-08-23T14:22:34.755Z,6.70
2022-08-23T14:25:01.917Z,6.70
2022-08-23T14:27:29.077Z,7.00
2022-08-23T14:29:56.137Z,6.65
2022-08-23T14:32:23.067Z,6.72
2022-08-23T14:34:50.467Z,6.47
2022-08-23T14:40:05.559Z,6.85
2022-08-23T14:42:32.630Z,6.50
2022-08-23T14:44:59.521Z,6.80
2022-08-23T14:47:26.845Z,7.18
2022-08-23T14:49:54.338Z,6.05
2022-08-23T14:52:22.529Z,6.15
2022-08-23T14:54:50.153Z,6.45
2022-08-23T14:57:17.677Z,7.07
2022-08-23T14:59:44.765Z,6.63
2022-08-23T15:02:19.176Z,6.03
2022-08-23T15:04:46.061Z,6.45
2022-08-23T15:07:20.176Z,6.18
2022-08-23T15:09:50.274Z,6.53
2022-08-23T15:15:14.492Z,6.00
2022-08-23T15:17:57.743Z,6.32
2022-08-23T15:20:32.949Z,6.68
2022-08-23T15:23:00.795Z,6.63
2022-08-23T15:25:35.348Z,6.40
2022-08-23T15:28:03.331Z,6.90
2022-08-23T15:30:33.457Z,6.53
2022-08-23T15:33:00.822Z,7.45
2022-08-23T15:35:29.459Z,8.10
2022-08-23T15:37:57.502Z,8.50
2022-08-23T15:40:25.616Z,8.15
2022-08-23T15:42:53.173Z,9.60
2022-08-23T15:45:20.226Z,9.18
2022-08-23T15:47:58.805Z,10.15
2022-08-23T15:50:31.134Z,9.50
2022-08-23T15:52:58.173Z,10.07
2022-08-23T15:55:31.949Z,9.68
2022-08-23T15:58:00.025Z,9.30
2022-08-23T16:00:29.333Z,9.40
2022-08-23T16:03:18.726Z,9.85
2022-08-23T16:05:47.412Z,9.02
2022-08-23T16:08:28.220Z,10.65
2022-08-23T16:10:56.913Z,9.13
2022-08-23T16:13:25.719Z,9.27
2022-08-23T16:15:53.127Z,9.30
2022-08-23T16:18:20.565Z,10.13
2022-08-23T16:20:47.463Z,13.93
2022-08-23T16:23:14.483Z,8.80
2022-08-23T16:25:42.269Z,5.97
2022-08-23T16:28:09.956Z,4.20
2022-08-23T16:30:37.112Z,3.63
2022-08-23T16:33:04.499Z,3.28
2022-08-23T16:35:31.424Z,3.30
2022-08-23T16:37:58.375Z,3.45
2022-08-23T16:40:25.513Z,3.30
2022-08-23T16:42:52.865Z,3.13
2022-08-23T16:45:25.796Z,2.97
2022-08-23T16:47:54.045Z,3.25
2022-08-23T16:50:21.350Z,2.70
2022-08-23T16:52:48.326Z,2.83
2022-08-23T16:55:15.390Z,3.05
2022-08-23T16:57:42.305Z,3.45
2022-08-23T17:00:14.734Z,3.28
2022-08-23T17:02:43.952Z,3.50
2022-08-23T17:05:16.021Z,3.47
2022-08-23T17:07:43.503Z,3.45
2022-08-23T17:10:14.544Z,3.30
2022-08-23T17:12:47.307Z,3.67
2022-08-23T17:15:20.651Z,3.40
2022-08-23T17:17:48.787Z,4.50
2022-08-23T17:20:18.537Z,6.03
2022-08-23T17:22:47.129Z,6.55
2022-08-23T17:25:15.118Z,7.20
2022-08-23T17:27:46.097Z,6.20
2022-08-23T17:30:16.923Z,5.43
2022-08-23T17:32:47.686Z,4.47
2022-08-23T17:35:21.493Z,4.47
2022-08-23T17:37:48.663Z,3.28
2022-08-23T17:40:21.260Z,3.90
2022-08-23T17:42:48.675Z,4.03
2022-08-23T17:45:15.873Z,4.00
2022-08-23T17:47:42.997Z,3.83
2022-08-23T17:50:11.798Z,4.22
2022-08-23T17:52:39.067Z,5.40
2022-08-23T17:55:07.626Z,5.53
2022-08-23T17:57:34.939Z,7.47
2022-08-23T18:00:03.578Z,6.65
2022-08-23T18:02:30.512Z,5.97
2022-08-23T18:04:57.418Z,5.90
2022-08-23T18:07:24.632Z,6.45
2022-08-23T18:09:52.246Z,6.75
2022-08-23T18:12:19.157Z,6.63
2022-08-23T18:14:46.282Z,7.28
2022-08-23T18:17:41.111Z,8.80
2022-08-23T18:20:10.754Z,7.68
2022-08-23T18:22:38.234Z,7.53
2022-08-23T18:25:47.562Z,8.35
2022-08-23T18:28:18.152Z,6.90
2022-08-23T18:31:41.583Z,7.50
2022-08-23T18:34:29.509Z,8.30
2022-08-23T18:36:57.200Z,12.50
2022-08-23T18:39:27.537Z,12.70
2022-08-23T18:42:01.486Z,11.30
2022-08-23T18:44:29.523Z,9.70
2022-08-23T18:46:56.739Z,10.60
2022-08-23T18:49:23.825Z,10.18
2022-08-23T18:51:50.825Z,10.05
2022-08-23T18:54:17.754Z,10.05
2022-08-23T18:56:45.082Z,9.98
2022-08-23T18:59:13.906Z,10.32
2022-08-23T19:01:42.533Z,10.32
2022-08-23T19:04:13.014Z,9.63
2022-08-23T19:06:40.987Z,10.20
2022-08-23T19:09:11.283Z,10.73
2022-08-23T19:11:40.720Z,11.95
2022-08-23T19:14:10.664Z,9.60
2022-08-23T19:16:38.961Z,10.85
2022-08-23T19:19:06.883Z,10.85
2022-08-23T19:21:34.085Z,10.90
2022-08-23T19:24:01.451Z,10.85
2022-08-23T19:26:34.445Z,10.25
2022-08-23T19:31:37.140Z,9.07
2022-08-23T19:34:06.689Z,9.63
2022-08-23T19:36:46.236Z,10.70
2022-08-23T19:39:14.807Z,8.93
2022-08-23T19:41:42.027Z,8.73
2022-08-23T19:44:09.509Z,8.52
2022-08-23T19:46:42.113Z,8.07
2022-08-23T19:49:12.130Z,7.85
2022-08-23T19:51:39.912Z,8.55
2022-08-23T19:54:11.450Z,8.10
2022-08-23T19:56:56.490Z,8.10
2022-08-23T19:59:31.446Z,8.07
2022-08-23T20:01:59.325Z,8.82
2022-08-23T20:04:29.464Z,7.38
2022-08-23T20:06:58.321Z,8.40
2022-08-23T20:09:28.670Z,7.65
2022-08-23T20:11:56.498Z,7.88
2022-08-23T20:14:26.739Z,8.73
2022-08-23T20:16:56.850Z,8.02
2022-08-23T20:19:24.124Z,8.43
2022-08-23T20:21:51.386Z,8.68
2022-08-23T20:24:28.839Z,9.30
2022-08-23T20:27:07.022Z,9.73
2022-08-23T20:29:34.098Z,10.32
2022-08-23T20:32:05.979Z,10.80
2022-08-23T20:34:34.769Z,11.63
2022-08-23T20:37:05.204Z,11.70
2022-08-23T20:39:32.907Z,12.80
2022-08-23T20:41:59.807Z,12.98
2022-08-23T20:44:26.875Z,11.85
2022-08-23T20:46:56.752Z,13.45
2022-08-23T20:49:26.954Z,13.55
2022-08-23T20:51:53.885Z,14.38
2022-08-23T20:54:21.315Z,13.98
2022-08-23T20:56:51.491Z,13.63
2022-08-23T20:59:19.649Z,12.88
2022-08-23T21:01:47.353Z,15.18
2022-08-23T21:04:14.341Z,14.07
2022-08-23T21:06:51.639Z,14.07
2022-08-23T21:09:24.609Z,12.70
2022-08-23T21:11:55.847Z,13.18
2022-08-23T21:14:23.047Z,13.10
2022-08-23T21:16:49.994Z,13.05
2022-08-23T21:19:17.211Z,13.45
2022-08-23T21:21:44.577Z,13.20
2022-08-23T21:24:12.477Z,12.43
2022-08-23T21:26:40.466Z,12.98
2022-08-23T21:29:10.057Z,11.90
2022-08-23T21:31:38.823Z,13.45
2022-08-23T21:34:07.657Z,12.07
2022-08-23T21:36:35.972Z,13.68
2022-08-23T21:39:04.164Z,12.57
2022-08-23T21:41:41.547Z,12.55
2022-08-23T21:44:14.504Z,12.55
2022-08-23T21:46:42.782Z,11.75
2022-08-23T21:49:12.489Z,13.02
2022-08-23T21:51:41.922Z,13.07
2022-08-23T21:54:11.761Z,12.77
2022-08-23T21:56:40.020Z,12.63
2022-08-23T21:59:10.972Z,12.43
2022-08-23T22:01:39.094Z,12.80
2022-08-23T22:04:11.480Z,13.07
2022-08-23T22:06:39.604Z,13.48
2022-08-23T22:09:10.119Z,12.63
2022-08-23T22:11:40.658Z,11.95
2022-08-23T22:14:10.959Z,13.90
2022-08-23T22:16:38.019Z,12.68
2022-08-23T22:19:05.363Z,13.52
2022-08-23T22:21:35.392Z,12.80
2022-08-23T22:24:02.931Z,13.32
2022-08-23T22:26:29.892Z,11.63
2022-08-23T22:28:57.161Z,13.15
2022-08-23T22:31:24.534Z,12.60
2022-08-23T22:33:53.090Z,12.52
2022-08-23T22:36:23.575Z,13.65
2022-08-23T22:38:51.790Z,12.10
2022-08-23T22:41:24.099Z,12.63
2022-08-23T22:43:59.812Z,14.65
2022-08-23T22:46:29.527Z,14.85
2022-08-23T22:48:57.335Z,14.13
2022-08-23T22:51:29.486Z,13.40
2022-08-23T22:54:09.324Z,14.23
2022-08-23T22:56:48.167Z,12.40
2022-08-23T22:59:17.744Z,13.38
2022-08-23T23:01:50.507Z,12.73
2022-08-23T23:04:20.420Z,11.80
2022-08-23T23:06:48.514Z,11.38
2022-08-23T23:09:16.202Z,11.68
2022-08-23T23:11:44.346Z,12.10
2022-08-23T23:14:13.671Z,11.77
2022-08-23T23:16:41.495Z,11.80
2022-08-23T23:19:28.254Z,12.30
2022-08-23T23:21:58.339Z,11.60
2022-08-23T23:24:31.439Z,12.05
2022-08-23T23:29:27.346Z,12.10
2022-08-23T23:31:54.297Z,11.65
2022-08-23T23:34:21.500Z,11.77
2022-08-23T23:36:48.477Z,11.73
2022-08-23T23:39:16.759Z,12.13
2022-08-23T23:41:43.725Z,14.80
2022-08-23T23:44:10.968Z,13.40
2022-08-23T23:46:37.884Z,13.85
2022-08-23T23:49:05.524Z,14.43
2022-08-23T23:51:33.241Z,13.13
2022-08-23T23:54:01.324Z,12.57
2022-08-23T23:56:30.432Z,12.98
2022-08-23T23:58:58.677Z,12.45
